fechar
X Fechar
X Fechar

X Fechar
foto
Salvar nos Favoritos

X Fechar
foto
Clique e saiba mais
Clique e saiba mais
Clique e saiba mais
Clique e saiba mais
Clique e saiba mais
Clique e saiba mais
Clique e saiba mais

América Sports

Capacete Companhia

RM - Motocross Racing

Edgers Racing

RX Graphics

JPS Racing

Ohlins

DLua Racing

Toro Sports

Clique e saiba mais

> Notícias > Últimas Notícias

Motocross das Nações 2017: resultados classificatórias
Publicado em: 30/09/2017

Confira os primeiros resultados da disputa do Motocross das Nações 2017
Redação MotoX.com.br - Foto: Youthstream


Matterley Basin

Na MX1, o esloveno Tim Gajser saiu na frente, enquanto Zach Osborne (Team USA) foi o mais rápido na MX2. Jeffrey Herlings, da Holanda, desbancou Romain Febvre e venceu a classificatória da Open.

Vídeos








Como acompanhar

MXGP-TV transmite via internet todas as provas classificatórias deste sábado e também as baterias principais do domingo em planos pago apenas para o evento ou 70% de desconto com direito ao replay de todas as etapas da temporada. Quem tem o sinal da Band Sports pode acompanhar as provas principais de domingo ao vivo a partir das 9h.

Cronometragem e resultados das baterias em tempo real ficam disponíveis na página de Live Timing do MotoX.

Cronograma (horários de Brasília)

Domingo 1º de outubro
05:15 (YZ 125) Blu Cru Race 2
06:50 Final B
09:00 Race 1 (MXGP & MX2)
10:30 Race 2 (MX2 & Open)
12:00 Race 3 (Open & MXGP)

Classificatória Open

P. Nac Piloto M Tempo Diff Gap Melhor Volta Last Lap
1 NL J. Herlings (6) KTM 26:40.776 +10:39.999 +10:39.999 02:24.810 10: 02:29.574
2 FR R. Febvre (3) YAM 27:09.445 +00:28.669 +00:28.669 02:24.709 10: 02:37.134
3 CH J. Seewer (18) SUZ 27:16.629 +00:35.853 +00:07.184 02:26.402 10: 02:35.497
4 AU K. Gibbs (24) KTM 27:24.176 +00:43.400 +00:07.547 02:28.878 10: 02:32.105
5 GB D. Wilson (21) HUS 27:26.050 +00:45.274 +00:01.874 02:28.368 10: 02:31.452
6 BE K. Strijbos (12) SUZ 27:40.357 +00:59.581 +00:14.307 02:26.991 10: 02:44.336
7 US T. Covington (9) HUS 27:46.530 +01:05.754 +00:06.173 02:28.440 10: 02:36.661
8 IE G. Irwin (60) SUZ 27:50.331 +01:09.555 +00:03.801 02:30.479 10: 02:33.035
9 EE T. Leok (27) HUS 27:53.499 +01:12.723 +00:03.168 02:31.054 10: 02:35.571
10 IT A. Lupino (15) HON 28:07.964 +01:27.188 +00:14.465 02:30.870 10: 02:39.536
11 DE D. Ullrich (66) KTM 28:17.170 +01:36.394 +00:09.206 02:31.918 10: 02:39.795
12 SE F. Noren (39) HON 28:29.280 +01:48.504 +00:12.110 02:33.194 10: 02:38.576
13 DK S. K. . Olsen (42) KAW 28:40.939 +02:00.163 +00:11.659 02:34.098 10: 02:42.367
14 CA T. Medaglia (30) HON 28:50.119 +02:09.343 +00:09.180 02:35.243 10: 02:37.756
15 PR M. Weltin (78) KAW 28:52.205 +02:11.429 +00:02.086 02:36.610 10: 02:37.482
16 CZ J. Romancik (48) KTM 29:01.692 +02:20.916 +00:09.487 02:36.390 10: 02:47.680
17 NZ H. Harwood (51) KTM 29:07.508 +02:26.732 +00:05.816 02:36.413 10: 02:42.012
18 ES I. L. Olano (36) HUS 29:20.478 +02:39.702 +00:12.970 02:36.896 10: 02:52.982
19 ZA N. Bradshaw (75) SUZ 29:24.244 +02:43.468 +00:03.766 02:37.324 10: 02:47.166
20 PT H. Basaula (63) KAW 26:48.658 -1 lap -1 lap 02:37.407 9: 02:47.460
21 SK T. Kohut (84) KTM 26:57.741 -1 lap -1 lap 02:40.009 9: 02:48.112
22 RU I. Baranov (33) HUS 27:04.029 -1 lap -1 lap 02:40.469 9: 02:42.438
23 GR E. Kritikos (105) KAW 27:05.579 -1 lap -1 lap 02:41.311 9: 02:43.276
24 NO A. Sander-Michelsen (120) TM 27:06.123 -1 lap -1 lap 02:40.960 9: 02:43.372
25 SI P. Irt (69) YAM 27:17.825 -1 lap -1 lap 02:41.897 9: 02:49.188
26 UA R. Morozov (99) YAM 27:20.571 -1 lap -1 lap 02:40.885 9: 02:48.990
27 IS E. Reynisson (108) KAW 27:22.573 -1 lap -1 lap 02:39.312 9: 02:48.697
28 AR J. G. Felipe (123) KAW 27:23.931 -1 lap -1 lap 02:41.908 9: 02:45.276
29 PL S. Staszkiewicz (90) KTM 27:25.182 -1 lap -1 lap 02:42.762 9: 02:48.564
30 HR M. Kelava (93) KTM 27:47.535 -1 lap -1 lap 02:41.958 9: 02:49.071
31 LV K. Drevinskis (96) KTM 27:48.234 -1 lap -1 lap 02:42.895 9: 02:51.125
32 BR E. Lima (72) KAW 28:21.073 -1 lap -1 lap 02:43.366 9: 02:56.427
33 HU G. Firtosvari (81) KTM 28:47.385 -1 lap -1 lap 02:45.997 9: 02:53.382
34 LT A. Milevicius (57) YAM 29:16.825 -1 lap -1 lap 02:50.686 9: 03:05.674
35 LU B. Frank (111) HON 29:34.869 -1 lap -1 lap 02:50.064 9: 03:10.972
36 IL Z. Karmi (114) KTM 28:11.334 -2 laps -2 laps 03:01.613 8: 03:08.296
37 FI J. Haavisto (87) KTM 09:27.187 -8 laps -8 laps 02:37.017  
38 TH C. Romphan (117) YAM 10:39.999 -11 laps -11 laps 10:39.999

Classificatória MX2

P. Nac Piloto M Tempo Diff Gap Melhor Volta Last Lap
1 US Z. Osborne (8) HUS 27:26.409 +10:39.999 +10:39.999 02:27.408 10: 02:29.413
2 AU H. Lawrence (23) SUZ 27:27.538 +00:01.129 +00:01.129 02:28.995 10: 02:31.384
3 NL B. Bogers (5) KTM 27:50.578 +00:24.169 +00:23.040 02:31.296 10: 02:34.601
4 ES J. P. Garcia (35) KTM 27:51.768 +00:25.359 +00:01.190 02:30.760 10: 02:33.821
5 DK T. K. Olsen (41) HUS 27:53.713 +00:27.304 +00:01.945 02:30.512 10: 02:32.791
6 PR D. Sanayei (77) KAW 27:56.676 +00:30.267 +00:02.963 02:30.116 10: 02:30.116
7 GB T. Searle (20) KAW 28:10.140 +00:43.731 +00:13.464 02:30.758 10: 02:39.683
8 FR C. Charlier (2) HUS 28:12.743 +00:46.334 +00:02.603 02:31.921 10: 02:35.405
9 CH V. Guillod (17) HON 28:39.382 +01:12.973 +00:26.639 02:34.582 10: 02:38.169
10 EE H. Kullas (26) HUS 28:40.405 +01:13.996 +00:01.023 02:34.754 10: 02:36.670
11 CA S. Maffenbeier (29) YAM 28:41.200 +01:14.791 +00:00.795 02:34.960 10: 02:38.576
12 DE H. Jacobi (65) HUS 28:42.253 +01:15.844 +00:01.053 02:35.538 10: 02:36.974
13 IT M. Cervellin (14) HON 28:52.719 +01:26.310 +00:10.466 02:34.297 10: 02:36.993
14 IE M. Barr (59) HON 28:53.326 +01:26.917 +00:00.607 02:35.976 10: 02:36.471
15 PT P. Alberto (62) HON 28:55.689 +01:29.280 +00:02.363 02:37.324 10: 02:37.324
16 SE A. Östlund (38) YAM 28:56.608 +01:30.199 +00:00.919 02:35.949 10: 02:38.992
17 LV K. Sabulis (95) YAM 28:57.179 +01:30.770 +00:00.571 02:35.882 10: 02:38.112
18 BE B. V. doninck (11) YAM 28:59.055 +01:32.646 +00:01.876 02:33.943 10: 02:38.090
19 CZ P. Smitka (47) KTM 28:59.521 +01:33.112 +00:00.466 02:35.767 10: 02:35.767
20 NO K. Horgmo (119) KTM 29:17.614 +01:51.205 +00:18.093 02:36.865 10: 02:39.565
21 SK R. Sikyna (83) KTM 29:18.036 +01:51.627 +00:00.422 02:37.181 10: 02:39.413
22 HR L. Crnkovic (92) YAM 29:48.194 +02:21.785 +00:30.158 02:40.584 10: 02:47.795
23 NZ J. Natzke (50) KTM 30:12.809 +02:46.400 +00:24.615 02:35.497 10: 02:49.049
24 RU E. Mikhaylov (32) HUS 30:16.474 +02:50.065 +00:03.665 02:40.970 10: 02:57.613
25 PL G. Chetnicki (89) KTM 30:51.473 +03:25.064 +00:34.999 02:40.846 10: 03:34.826
26 FI K. Savaste (86) KTM 27:29.056 -1 lap -1 lap 02:39.929 9: 02:43.107
27 UA V. Tarasov (98) KTM 27:44.014 -1 lap -1 lap 02:44.327 9: 02:45.092
28 AR J. P. Luzzardi (122) KTM 27:44.763 -1 lap -1 lap 02:43.520 9: 02:50.462
29 ZA K. Fitz-Gerald (74) KTM 27:46.076 -1 lap -1 lap 02:45.393 9: 02:45.427
30 HU K. Tompa (80) YAM 27:52.163 -1 lap -1 lap 02:46.022 9: 02:47.808
31 LT D. Karka (56) KTM 28:12.208 -1 lap -1 lap 02:43.575 9: 02:50.111
32 SI J. Pancar (68) YAM 28:21.859 -1 lap -1 lap 02:41.119 9: 02:45.341
33 GR I. Touratzidis (104) YAM 28:50.845 -1 lap -1 lap 02:51.425 9: 02:56.479
34 BR F. Santos (71) YAM 24:14.245 -2 laps -2 laps 02:40.222 8: 02:41.928
35 TH K. Potaton (116) YAM 28:20.780 -2 laps -2 laps 03:00.310 8: 03:19.347
36 LU B. Lux (110) HON 30:47.908 -2 laps -2 laps 02:59.753 8: 03:25.198
37 IS A. . Gudmundsson (107) HON 14:00.286 -6 laps -6 laps 02:46.183 4: 02:50.428
38 IL D. Maya (113) KAW 02:53.968 -10 laps -10 laps 10:39.999  

Classificatória MXGP


P. Nac Piloto M Tempo Diff Gap Melhor Volta Last Lap
1 SI T. Gajser (67) HON 27:02.312 +10:39.999 +10:39.999 02:26.581 10: 02:31.212
2 FR G. Paulin (1) HUS 27:07.728 +00:05.416 +00:05.416 02:26.697 10: 02:31.062
3 IT A. Cairoli (13) KTM 27:09.153 +00:06.841 +00:01.425 02:27.299 10: 02:29.536
4 GB M. Anstie (19) HUS 27:23.798 +00:21.486 +00:14.645 02:27.719 10: 02:45.501
5 BE J. V. Horebeek (10) YAM 27:34.064 +00:31.752 +00:10.266 02:27.845 10: 02:37.505
6 RU E. Bobryshev (31) HON 27:37.806 +00:35.494 +00:03.742 02:28.705 10: 02:36.932
7 AU D. Ferris (22) YAM 27:40.730 +00:38.418 +00:02.924 02:28.788 10: 02:37.140
8 CH A. Tonus (16) YAM 27:41.518 +00:39.206 +00:00.788 02:28.074 10: 02:36.091
9 US C. Seely (7) HON 27:44.580 +00:42.268 +00:03.062 02:29.491 10: 02:33.724
10 NL G. Coldenhoff (4) KTM 27:45.184 +00:42.872 +00:00.604 02:30.068 10: 02:33.736
11 PT R. Goncalves (61) HUS 28:22.212 +01:19.900 +00:37.028 02:32.221 10: 02:39.263
12 NZ C. Cooper (49) HON 28:32.201 +01:29.889 +00:09.989 02:33.971 10: 02:42.242
13 EE P. Ratsep (25) HON 28:34.801 +01:32.489 +00:02.600 02:32.291 10: 02:38.363
14 CA C. Facciotti (28) HON 28:39.670 +01:37.358 +00:04.869 02:32.870 10: 02:41.942
15 SE F. Bengtsson (37) KTM 28:49.016 +01:46.704 +00:09.346 02:36.197 10: 02:39.421
16 ES J. Butron (34) KTM 28:51.745 +01:49.433 +00:02.729 02:36.237 10: 02:37.459
17 CZ F. Neugebauer (46) KAW 28:52.078 +01:49.766 +00:00.333 02:35.366 10: 02:38.962
18 PR J. Starling (76) HUS 29:11.600 +02:09.288 +00:19.522 02:36.847 10: 02:43.222
19 IE S. Edmonds (58) TM 29:17.334 +02:15.022 +00:05.734 02:38.522 10: 02:43.123
20 SK T. Simko (82) SUZ 29:34.612 +02:32.300 +00:17.278 02:39.320 10: 02:45.749
21 LV T. Macuks (94) KTM 29:40.893 +02:38.581 +00:06.281 02:39.854 10: 02:40.075
22 BR M. Lima (70) KAW 29:44.364 +02:42.052 +00:03.471 02:38.688 10: 02:44.006
23 FI J. Matikainen (85) HUS 27:19.370 -1 lap -1 lap 02:40.563 9: 02:53.135
24 AR J. Poli (121) HON 27:39.133 -1 lap -1 lap 02:42.018 9: 02:51.378
25 IS I. B. Birgisson (106) KTM 27:52.703 -1 lap -1 lap 02:44.294 9: 02:52.999
26 HU M. Szoke (79) KTM 28:02.869 -1 lap -1 lap 02:45.198 9: 02:49.835
27 NO K. H. Engan (118) SUZ 28:05.180 -1 lap -1 lap 02:44.103 9: 02:49.478
28 LT D. Jazdauskas (55) YAM 28:30.543 -1 lap -1 lap 02:49.102 9: 02:53.884
29 HR J. Martinac (91) YAM 29:36.147 -1 lap -1 lap 02:51.882 9: 02:59.562
30 DK N. Larsen (40) KTM 23:30.101 -2 laps -2 laps 02:35.220 8: 02:35.604
31 UA D. Asmanov (97) YAM 24:23.835 -2 laps -2 laps 02:41.952 8: 02:45.026
32 TH B. Hallgren (115) YAM 25:17.319 -2 laps -2 laps 02:47.209 8: 02:52.249
33 GR G. Iliopoulos (103) KTM 28:22.228 -2 laps -2 laps 03:00.663 8: 03:11.404
34 LU E. Tabouraing (109) KAW 29:24.237 -2 laps -2 laps 03:10.900 8: 03:24.561
35 IL T. Harel (112) KTM 29:31.086 -2 laps -2 laps 03:11.733 8: 03:17.270
36 DE M. Nagl (64) HUS 09:57.166 -7 laps -7 laps 02:29.350 3: 02:29.350
37 ZA A. Raynard (73) HUS 08:19.049 -8 laps -8 laps 02:45.573  
38 PL T. Wysocki (88) KTM 06:38.234 -9 laps -9 laps 04:03.236  

Soma

Os países até a 19º posição estão classificados nas baterias finais. Dos 20º ao 31º colocados, estão admitidos na final B, enquanto dos 32º ao 38º colocados estão na final C.

P. País Pontuação
1 França 4
2 Holanda 4
3 Austrália 6
4 USA 8
5 Grã Bretanha 9
6 Suíça 11
7 Bélgica 11
8 Itália 13
9 Dinamarca 18
10 Estônia 19
11 Espanha 20
12 Porto Rico 21
13 Irlanda 22
14 Alemanha 23
15 Canadá 25
16 Portugal 26
17 Eslovênia 26
18 Suécia 27
19 Rússia 28
20 Nova Zelândia - Admitido na Final B 29
21 República Tcheca - Admitido na Final B 33
22 Letônia - Admitido na Final B 38
23 Eslováquia - Admitido na Final B 41
24 Noruega - Admitido na Final B 44
25 África do Sul - Admitido na Final B 48
26 Finlândia - Admitido na Final B 49
27 Croácia - Admitido na Final B 51
28 Argentina - Admitido na Final B 52
29 Islândia - Admitido na Final B 52
30 Ucrânia - Admitido na Final B 53
31 Brasil - Admitido na Final B 54
32 Polônia  - Admitido na Final C 54
33 Hungria - Admitido na Final C 56
34 Grécia - Admitido na Final C 56
35 Lituânia - Admitido na Final C 59
36 Tailândia - Admitido na Final C 67
37 Luxemburgo - Admitido na Final C 69
38 Israel - Admitido na Final C 71







Vídeos MotoX Connect



Acompanhe o MotoX no Facebook

Curso MotoX
Brasil Racing
JPS Racing

© 2000 - 2017 MotoX MX1 Internet